Time;durP1;ratioP1;P1;durP2;ratioP2;P2;SDS_P1;SDS_P2;PMS_P1;PMS_P2;Temp;Humidity;BMP_temperature;BMP_pressure;BME280_temperature;BME280_humidity;BME280_pressure;Samples;Min_cycle;Max_cycle;Signal;HPM_P1;HPM_P2
2023/12/08 00:00:09;;;;;;;449.25;239.65;;;;;;;-2.59;100.00;97682.63;4927116;28;20046;-55
2023/12/08 00:02:34;;;;;;;439.98;230.50;;;;;;;-2.49;100.00;97677.13;4930517;29;20035;-55
2023/12/08 00:05:00;;;;;;;420.45;224.57;;;;;;;-2.37;100.00;97676.78;4929206;29;20047;-55
2023/12/08 00:07:26;;;;;;;352.15;219.13;;;;;;;-2.43;100.00;97673.97;4927819;29;20030;-54
2023/12/08 00:09:51;;;;;;;449.15;227.05;;;;;;;-2.39;100.00;97668.22;4929059;29;20019;-54
2023/12/08 00:12:16;;;;;;;491.30;226.20;;;;;;;-2.38;100.00;97664.84;4928663;29;20160;-54
2023/12/08 00:14:42;;;;;;;408.48;226.45;;;;;;;-2.37;100.00;97651.31;4930842;29;20476;-56
2023/12/08 00:17:07;;;;;;;555.03;231.48;;;;;;;-2.38;100.00;97646.13;4929753;29;20039;-54
2023/12/08 00:19:33;;;;;;;357.83;217.82;;;;;;;-2.35;100.00;97628.44;4930974;28;20481;-54
2023/12/08 00:21:58;;;;;;;378.33;226.65;;;;;;;-2.45;100.00;97646.72;4930860;29;20047;-53
2023/12/08 00:24:24;;;;;;;408.88;230.45;;;;;;;-2.49;100.00;97627.84;4928278;29;20032;-56
2023/12/08 00:26:50;;;;;;;383.45;231.38;;;;;;;-2.42;100.00;97634.97;4928189;29;20035;-54
2023/12/08 00:29:19;;;;;;;458.05;235.00;;;;;;;-2.34;100.00;97636.97;4928393;29;20027;-56
2023/12/08 00:31:44;;;;;;;430.67;230.48;;;;;;;-2.40;100.00;97645.22;4928654;29;20329;-55
2023/12/08 00:34:10;;;;;;;471.02;236.18;;;;;;;-2.58;100.00;97653.81;4929581;29;20036;-54
2023/12/08 00:36:35;;;;;;;404.00;230.55;;;;;;;-2.54;100.00;97649.72;4929400;29;20090;-54
2023/12/08 00:39:01;;;;;;;358.45;230.88;;;;;;;-2.38;100.00;97647.03;4928874;29;20034;-55
2023/12/08 00:41:27;;;;;;;383.60;232.65;;;;;;;-2.29;100.00;97650.75;4929648;29;20051;-54
2023/12/08 00:43:52;;;;;;;404.27;230.40;;;;;;;-2.30;100.00;97639.69;4928175;29;20175;-55
2023/12/08 00:46:18;;;;;;;531.33;238.43;;;;;;;-2.24;100.00;97627.22;4927023;29;20043;-54
2023/12/08 00:48:43;;;;;;;426.70;236.85;;;;;;;-2.22;100.00;97619.66;4928454;29;20024;-55
2023/12/08 00:51:11;;;;;;;462.42;237.32;;;;;;;-2.08;100.00;97620.19;4926337;29;20358;-53
2023/12/08 00:53:37;;;;;;;396.52;237.65;;;;;;;-1.98;100.00;97613.78;4930804;29;20028;-55
2023/12/08 00:56:03;;;;;;;400.83;236.50;;;;;;;-1.85;100.00;97615.16;4926168;29;20047;-55
2023/12/08 00:58:28;;;;;;;429.17;234.63;;;;;;;-1.78;100.00;97627.34;4928832;29;20015;-56
2023/12/08 01:00:53;;;;;;;386.67;233.63;;;;;;;-1.69;100.00;97606.44;4930628;29;20240;-54
2023/12/08 01:03:19;;;;;;;487.20;236.82;;;;;;;-1.58;100.00;97614.50;4928904;29;20035;-55
2023/12/08 01:05:44;;;;;;;443.77;239.02;;;;;;;-1.48;100.00;97605.53;4928168;29;20052;-54
2023/12/08 01:08:09;;;;;;;413.83;239.20;;;;;;;-1.48;100.00;97597.88;4927563;29;20531;-53
2023/12/08 01:10:35;;;;;;;393.73;233.02;;;;;;;-1.41;100.00;97592.19;4926671;28;20040;-53
2023/12/08 01:13:00;;;;;;;435.85;239.15;;;;;;;-1.41;100.00;97587.06;4910909;29;20394;-55
2023/12/08 01:15:25;;;;;;;378.27;236.65;;;;;;;-1.32;100.00;97594.22;4928514;29;20050;-56
2023/12/08 01:17:51;;;;;;;394.42;236.88;;;;;;;-1.21;100.00;97584.41;4928289;29;20511;-54
2023/12/08 01:20:16;;;;;;;504.50;241.18;;;;;;;-1.03;100.00;97581.66;4926655;28;20036;-55
2023/12/08 01:22:41;;;;;;;395.73;238.73;;;;;;;-1.11;100.00;97573.72;4930389;29;20036;-55
2023/12/08 01:25:07;;;;;;;484.30;239.90;;;;;;;-1.04;100.00;97579.91;4928287;29;20142;-55
2023/12/08 01:27:32;;;;;;;420.02;238.60;;;;;;;-1.02;100.00;97580.84;4927021;29;20182;-54
2023/12/08 01:29:57;;;;;;;382.33;240.57;;;;;;;-1.11;100.00;97572.84;4927884;29;20515;-55
2023/12/08 01:32:23;;;;;;;389.63;237.55;;;;;;;-0.99;100.00;97573.31;4927184;29;20264;-54
2023/12/08 01:34:48;;;;;;;480.90;241.40;;;;;;;-0.98;100.00;97569.94;4928039;29;20101;-54
2023/12/08 01:37:13;;;;;;;526.63;242.43;;;;;;;-0.91;100.00;97568.47;4928250;29;20542;-55
2023/12/08 01:39:40;;;;;;;411.17;240.68;;;;;;;-1.05;100.00;97567.97;4928552;28;20414;-54
2023/12/08 01:42:05;;;;;;;476.80;242.13;;;;;;;-1.12;100.00;97566.88;4927618;29;20047;-54
2023/12/08 01:44:30;;;;;;;401.27;239.25;;;;;;;-0.98;100.00;97580.13;4928694;29;20028;-54
2023/12/08 01:46:56;;;;;;;409.65;239.88;;;;;;;-0.92;100.00;97587.16;4930180;29;20039;-54
2023/12/08 01:49:21;;;;;;;563.70;250.68;;;;;;;-0.96;100.00;97583.59;4926659;28;20126;-54
2023/12/08 01:51:47;;;;;;;392.67;240.20;;;;;;;-0.88;100.00;97570.25;4928594;29;20079;-54
2023/12/08 01:54:15;;;;;;;525.30;245.60;;;;;;;-0.91;100.00;97571.00;4927640;29;20035;-54
2023/12/08 01:56:40;;;;;;;442.17;243.38;;;;;;;-0.89;100.00;97571.06;4927973;29;20365;-53
2023/12/08 01:59:08;;;;;;;429.33;242.18;;;;;;;-0.93;100.00;97573.50;4926332;29;20028;-55
2023/12/08 02:01:34;;;;;;;406.65;241.38;;;;;;;-0.88;100.00;97571.13;4914226;29;20249;-55
2023/12/08 02:04:00;;;;;;;415.20;243.18;;;;;;;-0.94;100.00;97566.66;4929149;29;20423;-54
2023/12/08 02:06:25;;;;;;;398.40;242.23;;;;;;;-0.94;100.00;97569.22;4926943;29;20055;-54
2023/12/08 02:08:51;;;;;;;474.13;241.13;;;;;;;-1.00;100.00;97571.53;4927831;29;20065;-55
2023/12/08 02:11:16;;;;;;;487.35;244.45;;;;;;;-0.99;100.00;97564.75;4928106;29;20048;-54
2023/12/08 02:13:42;;;;;;;407.65;239.95;;;;;;;-1.08;100.00;97555.09;4930458;29;20557;-54
2023/12/08 02:16:19;;;;;;;486.67;244.35;;;;;;;-1.22;100.00;97552.91;4926165;29;20043;-55
2023/12/08 02:18:45;;;;;;;440.33;243.73;;;;;;;-1.16;100.00;97548.84;4929822;28;20051;-54
2023/12/08 02:21:13;;;;;;;503.70;245.80;;;;;;;-1.13;100.00;97548.94;4928048;28;20067;-55
2023/12/08 02:23:47;;;;;;;419.00;240.35;;;;;;;-1.16;100.00;97559.06;4931832;29;20023;-54
2023/12/08 02:26:13;;;;;;;544.03;248.55;;;;;;;-1.07;100.00;97550.03;4928995;29;20047;-58
2023/12/08 02:28:39;;;;;;;470.80;242.98;;;;;;;-1.14;100.00;97554.88;4931539;29;20105;-55
2023/12/08 02:31:08;;;;;;;406.02;241.80;;;;;;;-1.12;100.00;97550.72;4929661;29;20054;-54
2023/12/08 02:33:37;;;;;;;411.30;241.15;;;;;;;-1.04;100.00;97546.72;4914011;29;20384;-54
2023/12/08 02:36:05;;;;;;;390.58;239.77;;;;;;;-1.01;100.00;97539.19;4931140;29;20055;-54
2023/12/08 02:38:32;;;;;;;404.92;242.07;;;;;;;-1.04;100.00;97533.94;4932117;29;20050;-55
2023/12/08 02:40:58;;;;;;;447.77;241.98;;;;;;;-1.04;100.00;97526.28;4930680;29;20043;-55
2023/12/08 02:43:24;;;;;;;499.15;245.77;;;;;;;-0.94;100.00;97535.16;4928990;29;20039;-55
2023/12/08 02:45:49;;;;;;;739.53;398.30;;;;;;;-1.03;100.00;97535.72;4930875;29;20508;-55
2023/12/08 02:48:15;;;;;;;473.73;246.07;;;;;;;-0.87;100.00;97536.22;4929088;29;20685;-55
2023/12/08 02:50:42;;;;;;;396.00;240.68;;;;;;;-0.79;100.00;97535.69;4930287;28;20462;-55
2023/12/08 02:53:07;;;;;;;378.33;239.55;;;;;;;-0.80;100.00;97527.97;4929304;29;20034;-53
2023/12/08 02:55:33;;;;;;;458.65;243.00;;;;;;;-0.82;100.00;97532.19;4929067;28;20291;-54
2023/12/08 02:57:58;;;;;;;383.05;237.88;;;;;;;-0.87;100.00;97526.91;4930612;29;20023;-55
2023/12/08 03:00:23;;;;;;;471.30;245.23;;;;;;;-0.89;100.00;97527.66;4929764;28;20043;-53
2023/12/08 03:02:48;;;;;;;470.98;246.80;;;;;;;-0.93;100.00;97519.88;4931316;29;20034;-56
2023/12/08 03:05:14;;;;;;;568.95;252.73;;;;;;;-1.03;100.00;97510.19;4929075;29;20618;-54
2023/12/08 03:07:39;;;;;;;395.77;241.93;;;;;;;-1.10;100.00;97501.44;4930262;29;20023;-54
2023/12/08 03:10:05;;;;;;;397.73;240.48;;;;;;;-1.22;100.00;97491.66;4932462;28;20035;-55
2023/12/08 03:12:31;;;;;;;409.67;242.25;;;;;;;-1.19;100.00;97484.13;4929832;29;20047;-54
2023/12/08 03:14:56;;;;;;;395.88;239.35;;;;;;;-1.13;100.00;97490.25;4931987;29;20031;-54
2023/12/08 03:17:21;;;;;;;600.95;249.48;;;;;;;-1.11;100.00;97491.19;4929355;29;20202;-55
2023/12/08 03:19:47;;;;;;;412.88;241.98;;;;;;;-1.04;100.00;97493.09;4930004;28;20027;-56
2023/12/08 03:22:12;;;;;;;496.30;245.02;;;;;;;-1.05;100.00;97481.16;4927920;29;20047;-54
2023/12/08 03:24:38;;;;;;;452.23;244.07;;;;;;;-1.06;100.00;97479.44;4931080;29;20043;-54
2023/12/08 03:27:03;;;;;;;397.08;242.55;;;;;;;-0.98;100.00;97477.13;4928039;29;20053;-54
2023/12/08 03:29:29;;;;;;;411.67;245.10;;;;;;;-0.93;100.00;97471.38;4931034;29;20035;-55
2023/12/08 03:31:54;;;;;;;451.02;242.98;;;;;;;-0.93;100.00;97471.38;4928635;29;20155;-55
2023/12/08 03:34:19;;;;;;;482.38;245.75;;;;;;;-0.86;100.00;97479.25;4927682;29;20462;-54
2023/12/08 03:36:45;;;;;;;401.17;243.35;;;;;;;-0.82;100.00;97486.22;4929289;29;20478;-55
2023/12/08 03:39:10;;;;;;;474.50;246.93;;;;;;;-0.76;100.00;97490.63;4929868;29;20395;-55
2023/12/08 03:41:35;;;;;;;391.98;242.32;;;;;;;-0.80;100.00;97492.22;4930680;29;20255;-54
2023/12/08 03:44:01;;;;;;;408.65;245.95;;;;;;;-0.71;100.00;97489.13;4930797;29;20035;-55
2023/12/08 03:46:26;;;;;;;563.63;252.25;;;;;;;-0.74;100.00;97497.53;4918420;29;20071;-54
2023/12/08 03:48:51;;;;;;;410.95;246.75;;;;;;;-0.82;100.00;97486.22;4928015;29;20102;-54
2023/12/08 03:51:17;;;;;;;393.80;241.95;;;;;;;-0.83;100.00;97476.78;4927972;29;20161;-54
2023/12/08 03:53:42;;;;;;;487.92;246.63;;;;;;;-0.93;100.00;97486.69;4931274;29;20182;-54
2023/12/08 03:56:08;;;;;;;414.58;243.95;;;;;;;-0.81;100.00;97473.47;4929915;29;20523;-54
2023/12/08 03:58:33;;;;;;;432.52;244.27;;;;;;;-0.88;100.00;97469.00;4928815;29;20027;-55
2023/12/08 04:00:58;;;;;;;416.67;241.65;;;;;;;-0.79;100.00;97463.31;4929341;29;20127;-54
2023/12/08 04:03:24;;;;;;;487.92;247.30;;;;;;;-0.81;100.00;97444.53;4927528;29;20253;-55
2023/12/08 04:05:49;;;;;;;438.38;244.88;;;;;;;-0.80;100.00;97448.81;4929340;29;20504;-54
2023/12/08 04:08:15;;;;;;;486.65;248.00;;;;;;;-0.69;100.00;97461.94;4930942;29;20031;-56
2023/12/08 04:10:40;;;;;;;390.10;244.90;;;;;;;-0.65;100.00;97451.00;4928017;29;20043;-54
2023/12/08 04:13:06;;;;;;;416.33;246.25;;;;;;;-0.75;100.00;97442.16;4930903;29;20318;-54
2023/12/08 04:15:31;;;;;;;438.10;243.90;;;;;;;-0.66;100.00;97447.56;4927835;29;20051;-55
2023/12/08 04:17:56;;;;;;;402.25;243.30;;;;;;;-0.64;100.00;97451.88;4929462;29;20094;-55
2023/12/08 04:20:22;;;;;;;622.65;260.13;;;;;;;-0.55;100.00;97447.06;4928809;28;20241;-55
2023/12/08 04:22:48;;;;;;;415.83;241.10;;;;;;;-0.68;100.00;97427.91;4929522;29;20036;-54
2023/12/08 04:25:13;;;;;;;418.90;242.07;;;;;;;-0.70;100.00;97429.56;4928370;29;20490;-55
2023/12/08 04:27:39;;;;;;;440.95;244.80;;;;;;;-0.73;100.00;97424.34;4929359;29;20051;-55
2023/12/08 04:30:04;;;;;;;375.80;241.73;;;;;;;-0.59;100.00;97433.31;4929478;28;20035;-55
2023/12/08 04:32:31;;;;;;;474.17;245.95;;;;;;;-0.50;100.00;97431.84;4929326;29;20389;-54
2023/12/08 04:34:57;;;;;;;450.10;244.98;;;;;;;-0.52;100.00;97426.69;4929327;29;20149;-54
2023/12/08 04:37:22;;;;;;;520.50;252.10;;;;;;;-0.72;100.00;97397.97;4928590;29;20260;-55
2023/12/08 04:39:47;;;;;;;401.60;244.38;;;;;;;-0.77;100.00;97404.63;4930186;28;20102;-55
2023/12/08 04:42:15;;;;;;;458.35;245.10;;;;;;;-0.63;100.00;97399.97;4928310;28;20039;-55
2023/12/08 04:44:40;;;;;;;519.55;286.90;;;;;;;-0.60;100.00;97407.72;4929310;29;20122;-54
2023/12/08 04:47:05;;;;;;;403.05;243.35;;;;;;;-0.63;100.00;97402.53;4929175;29;20127;-55
2023/12/08 04:49:31;;;;;;;583.85;251.70;;;;;;;-0.67;100.00;97404.97;4925848;29;20054;-55
2023/12/08 04:51:56;;;;;;;404.00;240.90;;;;;;;-0.59;100.00;97424.78;4928863;29;20135;-53
2023/12/08 04:54:21;;;;;;;523.28;250.70;;;;;;;-0.48;100.00;97458.34;4927170;29;20058;-55
2023/12/08 04:56:47;;;;;;;423.10;244.32;;;;;;;-0.44;100.00;97480.63;4927746;29;20185;-54
2023/12/08 04:59:12;;;;;;;437.92;246.15;;;;;;;-0.27;100.00;97463.25;4928435;29;20034;-54
2023/12/08 05:01:37;;;;;;;432.35;247.88;;;;;;;-0.26;100.00;97470.09;4927630;29;20591;-53
2023/12/08 05:04:03;;;;;;;417.35;243.77;;;;;;;-0.25;100.00;97474.41;4927830;29;20051;-55
2023/12/08 05:06:29;;;;;;;553.25;251.25;;;;;;;-0.24;100.00;97447.13;4925989;29;20407;-55
2023/12/08 05:08:54;;;;;;;476.98;245.73;;;;;;;-0.19;100.00;97449.03;4927609;29;20035;-55
2023/12/08 05:11:20;;;;;;;527.78;250.80;;;;;;;-0.12;100.00;97452.63;4926242;29;20241;-55
2023/12/08 05:13:45;;;;;;;410.05;244.45;;;;;;;-0.22;100.00;97454.03;4928123;29;20035;-56
2023/12/08 05:16:11;;;;;;;426.02;245.93;;;;;;;-0.23;100.00;97444.63;4926751;29;20035;-57
2023/12/08 05:18:36;;;;;;;445.52;248.10;;;;;;;-0.24;100.00;97462.47;4925986;29;20031;-56
2023/12/08 05:21:02;;;;;;;417.52;245.52;;;;;;;-0.16;100.00;97451.69;4925431;29;20570;-55
2023/12/08 05:23:27;;;;;;;551.20;255.13;;;;;;;-0.29;100.00;97447.84;4927646;29;20044;-58
2023/12/08 05:25:53;;;;;;;729.33;418.08;;;;;;;-0.53;100.00;97420.75;4928650;29;20059;-55
2023/12/08 05:28:18;;;;;;;463.55;248.90;;;;;;;-0.57;100.00;97423.13;4926062;29;20098;-56
2023/12/08 05:30:44;;;;;;;459.95;247.93;;;;;;;-0.55;100.00;97427.47;4908972;29;20040;-56
2023/12/08 05:33:09;;;;;;;397.98;242.82;;;;;;;-0.36;100.00;97452.75;4926958;29;20020;-55
2023/12/08 05:35:34;;;;;;;467.60;250.82;;;;;;;-0.29;100.00;97458.09;4927715;29;20073;-55
2023/12/08 05:37:59;;;;;;;458.67;250.90;;;;;;;-0.37;100.00;97467.19;4927772;29;20479;-55
2023/12/08 05:40:25;;;;;;;551.95;259.55;;;;;;;-0.38;100.00;97464.63;4926409;29;20067;-55
2023/12/08 05:42:50;;;;;;;394.70;245.73;;;;;;;-0.41;100.00;97466.25;4927059;29;20134;-55
2023/12/08 05:45:15;;;;;;;486.17;250.77;;;;;;;-0.38;100.00;97467.19;4928455;29;20027;-54
2023/12/08 05:47:43;;;;;;;409.88;248.05;;;;;;;-0.31;100.00;97454.63;4928016;29;20336;-53
2023/12/08 05:50:08;;;;;;;428.75;250.30;;;;;;;-0.28;100.00;97449.63;4928082;29;20070;-55
2023/12/08 05:52:34;;;;;;;577.40;259.00;;;;;;;-0.34;100.00;97454.53;4928424;29;20432;-55
2023/12/08 05:54:59;;;;;;;421.90;251.15;;;;;;;-0.34;100.00;97451.13;4933442;29;20117;-55
2023/12/08 05:57:25;;;;;;;540.30;254.07;;;;;;;-0.28;100.00;97471.75;4929876;29;20039;-55
2023/12/08 05:59:50;;;;;;;487.70;253.15;;;;;;;-0.18;100.00;97465.22;4931855;29;20070;-55
2023/12/08 06:02:16;;;;;;;405.25;249.57;;;;;;;-0.29;100.00;97454.69;4931026;29;20502;-56
2023/12/08 06:04:41;;;;;;;429.05;248.43;;;;;;;-0.29;100.00;97444.47;4930525;28;20094;-55
2023/12/08 06:07:07;;;;;;;489.77;252.88;;;;;;;-0.18;100.00;97442.22;4931950;29;20447;-55
2023/12/08 06:09:32;;;;;;;463.15;249.38;;;;;;;-0.14;100.00;97444.06;4929217;28;20446;-54
2023/12/08 06:11:57;;;;;;;414.83;248.45;;;;;;;-0.04;100.00;97458.00;4930587;29;20079;-55
2023/12/08 06:14:23;;;;;;;535.65;256.75;;;;;;;0.05;100.00;97462.50;4931610;29;20032;-55
2023/12/08 06:16:48;;;;;;;433.42;250.10;;;;;;;0.15;100.00;97461.94;4930892;29;20522;-55
2023/12/08 06:19:14;;;;;;;445.70;252.70;;;;;;;0.03;100.00;97452.22;4931890;29;21228;-55
2023/12/08 06:21:39;;;;;;;466.15;252.38;;;;;;;0.14;100.00;97456.81;4930198;28;20039;-56
2023/12/08 06:24:04;;;;;;;428.75;259.52;;;;;;;0.04;100.00;97448.84;4933221;29;20420;-56
2023/12/08 06:26:30;;;;;;;505.13;258.17;;;;;;;0.07;100.00;97442.97;4931479;29;20067;-56
2023/12/08 06:28:55;;;;;;;495.65;252.10;;;;;;;0.24;100.00;97457.13;4932789;28;20024;-55
2023/12/08 06:31:21;;;;;;;452.08;250.80;;;;;;;0.08;100.00;97460.88;4930521;28;20134;-56
2023/12/08 06:33:46;;;;;;;524.88;297.52;;;;;;;0.12;100.00;97461.88;4930090;29;20020;-55
2023/12/08 06:36:12;;;;;;;487.20;268.30;;;;;;;0.03;100.00;97457.34;4930775;29;20059;-54
2023/12/08 06:38:38;;;;;;;480.40;258.73;;;;;;;0.11;100.00;97458.44;4930287;29;20115;-56
2023/12/08 06:41:04;;;;;;;385.70;250.00;;;;;;;0.34;100.00;97472.72;4929156;29;20173;-56
2023/12/08 06:43:30;;;;;;;585.05;262.92;;;;;;;0.23;100.00;97467.28;4930697;29;20414;-55
2023/12/08 06:45:55;;;;;;;418.35;249.73;;;;;;;0.35;100.00;97485.56;4931215;29;20042;-57
2023/12/08 06:48:23;;;;;;;425.95;253.80;;;;;;;0.29;100.00;97489.63;4930263;29;20039;-55
2023/12/08 06:50:50;;;;;;;439.40;254.98;;;;;;;0.33;100.00;97474.41;4929029;29;20562;-55
2023/12/08 06:53:16;;;;;;;412.35;251.40;;;;;;;0.22;100.00;97468.13;4931254;29;20024;-56
2023/12/08 06:55:41;;;;;;;577.97;295.75;;;;;;;0.23;100.00;97463.03;4929662;29;20063;-56
2023/12/08 06:58:07;;;;;;;473.20;265.73;;;;;;;0.32;100.00;97484.59;4930860;29;20406;-55
2023/12/08 07:00:32;;;;;;;562.63;265.15;;;;;;;0.50;100.00;97500.50;4929296;29;20839;-55
2023/12/08 07:02:57;;;;;;;467.23;258.48;;;;;;;0.60;100.00;97478.56;4930610;29;20038;-55
2023/12/08 07:05:23;;;;;;;456.40;258.17;;;;;;;0.63;100.00;97478.66;4927408;29;20058;-56
2023/12/08 07:07:48;;;;;;;446.20;258.42;;;;;;;0.46;100.00;97464.53;4930263;29;20023;-54
2023/12/08 07:10:15;;;;;;;467.50;256.92;;;;;;;0.63;100.00;97465.88;4928650;29;20050;-56
2023/12/08 07:12:42;;;;;;;585.80;260.40;;;;;;;0.52;100.00;97464.72;4928440;29;20028;-55
2023/12/08 07:15:08;;;;;;;425.70;255.68;;;;;;;0.61;100.00;97458.97;4930217;29;20479;-55
2023/12/08 07:17:33;;;;;;;520.67;274.02;;;;;;;0.77;100.00;97452.56;4931051;29;20015;-54
2023/12/08 07:19:59;;;;;;;445.48;258.50;;;;;;;0.92;100.00;97464.06;4932788;28;20033;-54
2023/12/08 07:22:24;;;;;;;439.50;257.63;;;;;;;0.80;100.00;97469.69;4927828;29;20046;-55
2023/12/08 07:24:50;;;;;;;466.80;256.80;;;;;;;0.86;100.00;97472.44;4928898;29;20069;-55
2023/12/08 07:27:15;;;;;;;450.52;256.77;;;;;;;0.86;100.00;97475.84;4912570;29;20040;-54
2023/12/08 07:29:40;;;;;;;538.58;259.35;;;;;;;0.77;100.00;97485.84;4913083;29;20430;-55
2023/12/08 07:32:06;;;;;;;464.88;258.60;;;;;;;0.65;100.00;97478.72;4930780;29;20047;-55
2023/12/08 07:34:31;;;;;;;585.85;269.08;;;;;;;0.61;100.00;97479.44;4929359;29;20118;-55
2023/12/08 07:36:57;;;;;;;402.15;250.95;;;;;;;0.63;100.00;97491.47;4927640;29;20561;-54
2023/12/08 07:39:22;;;;;;;423.77;240.63;;;;;;;0.71;100.00;97488.25;4930203;29;20513;-55
2023/12/08 07:41:47;;;;;;;424.90;239.88;;;;;;;0.77;100.00;97485.84;4928733;28;20342;-55
2023/12/08 07:44:13;;;;;;;431.08;238.27;;;;;;;0.87;100.00;97480.16;4929976;29;20023;-55
2023/12/08 07:46:38;;;;;;;578.47;247.50;;;;;;;1.07;100.00;97477.25;4928462;29;20546;-55
2023/12/08 07:49:04;;;;;;;408.42;238.32;;;;;;;0.95;100.00;97471.81;4929815;29;20114;-55
2023/12/08 07:51:32;;;;;;;560.58;248.98;;;;;;;0.88;100.00;97461.41;4930085;28;20502;-54
2023/12/08 07:53:57;;;;;;;523.78;275.73;;;;;;;0.78;100.00;97467.13;4930063;29;20030;-55
2023/12/08 07:56:23;;;;;;;471.38;262.65;;;;;;;0.87;100.00;97454.56;4928696;29;20051;-55
2023/12/08 07:58:48;;;;;;;493.80;249.65;;;;;;;1.02;100.00;97450.66;4928616;29;20027;-55
2023/12/08 08:01:14;;;;;;;464.33;246.38;;;;;;;0.98;100.00;97461.66;4929646;29;20040;-55
2023/12/08 08:03:39;;;;;;;578.95;254.45;;;;;;;1.02;100.00;97474.59;4930258;29;20026;-55
2023/12/08 08:06:04;;;;;;;474.65;247.45;;;;;;;0.84;100.00;97474.97;4927703;29;20042;-54
2023/12/08 08:08:30;;;;;;;509.17;248.80;;;;;;;0.87;100.00;97477.59;4929283;29;20083;-55
2023/12/08 08:10:55;;;;;;;434.10;244.90;;;;;;;1.11;100.00;97475.66;4927617;29;20048;-54
2023/12/08 08:13:21;;;;;;;442.25;249.07;;;;;;;1.10;100.00;97466.22;4929622;29;20035;-54
2023/12/08 08:15:46;;;;;;;467.25;252.68;;;;;;;1.06;100.00;97464.41;4926808;28;20067;-54
2023/12/08 08:18:12;;;;;;;411.45;248.45;;;;;;;1.14;100.00;97462.91;4928313;29;20431;-55
2023/12/08 08:20:37;;;;;;;505.73;252.20;;;;;;;1.18;100.00;97457.03;4929587;28;20529;-56
2023/12/08 08:23:02;;;;;;;439.50;247.40;;;;;;;1.21;100.00;97464.81;4929195;29;20410;-55
2023/12/08 08:25:27;;;;;;;432.67;247.65;;;;;;;1.20;100.00;97470.78;4926574;29;20394;-54
2023/12/08 08:27:53;;;;;;;474.52;250.77;;;;;;;1.39;100.00;97459.28;4929260;29;20098;-55
2023/12/08 08:30:20;;;;;;;434.13;249.68;;;;;;;1.21;100.00;97461.38;4927684;29;20027;-56
2023/12/08 08:32:45;;;;;;;432.42;247.40;;;;;;;1.17;100.00;97470.69;4928433;29;20035;-55
2023/12/08 08:35:11;;;;;;;464.95;248.70;;;;;;;1.17;100.00;97471.56;4929906;29;20046;-55
2023/12/08 08:37:36;;;;;;;508.58;253.88;;;;;;;1.16;100.00;97482.59;4927355;29;20582;-55
2023/12/08 08:40:03;;;;;;;412.23;248.52;;;;;;;1.19;100.00;97484.41;4928336;28;20550;-55
2023/12/08 08:42:28;;;;;;;447.90;247.43;;;;;;;1.18;100.00;97474.97;4927001;29;20051;-54
2023/12/08 08:44:53;;;;;;;439.98;238.38;;;;;;;1.24;100.00;97480.25;4928201;29;20467;-55
2023/12/08 08:47:19;;;;;;;421.45;240.60;;;;;;;1.20;100.00;97480.13;4929116;29;20721;-56
2023/12/08 08:49:45;;;;;;;555.22;252.18;;;;;;;1.02;100.00;97476.28;4927700;29;20470;-55
2023/12/08 08:52:12;;;;;;;409.67;246.38;;;;;;;1.10;100.00;97481.59;4928517;29;20050;-55
2023/12/08 08:54:37;;;;;;;604.42;306.60;;;;;;;1.01;100.00;97461.75;4930078;29;20031;-55
2023/12/08 08:57:04;;;;;;;438.45;249.35;;;;;;;0.89;100.00;97480.22;4929668;29;20035;-54
2023/12/08 08:59:30;;;;;;;443.83;249.15;;;;;;;0.89;100.00;97486.19;4926120;29;20024;-55
2023/12/08 09:01:55;;;;;;;454.67;246.77;;;;;;;0.66;100.00;97482.16;4929355;28;20490;-55
2023/12/08 09:04:21;;;;;;;446.52;246.07;;;;;;;0.65;100.00;97483.81;4927856;29;20229;-54
2023/12/08 09:06:46;;;;;;;919.10;372.42;;;;;;;0.63;100.00;97478.66;4928043;29;20064;-55
2023/12/08 09:09:11;;;;;;;615.10;319.77;;;;;;;0.56;100.00;97470.78;4927053;29;20023;-55
2023/12/08 09:11:36;;;;;;;578.38;250.40;;;;;;;0.51;100.00;97478.31;4926720;28;20042;-55
2023/12/08 09:14:02;;;;;;;386.00;237.13;;;;;;;0.50;100.00;97479.13;4929989;29;20020;-54
2023/12/08 09:16:27;;;;;;;430.45;244.00;;;;;;;0.56;100.00;97468.22;4927706;29;20035;-56
2023/12/08 09:18:53;;;;;;;446.17;248.48;;;;;;;0.50;100.00;97476.59;4926461;29;20387;-55
2023/12/08 09:21:18;;;;;;;342.25;244.52;;;;;;;0.60;100.00;97470.88;4933065;28;20698;-56
2023/12/08 09:23:44;;;;;;;492.73;246.10;;;;;;;0.68;100.00;97463.44;4932260;29;20043;-56
2023/12/08 09:26:09;;;;;;;727.17;406.75;;;;;;;0.80;100.00;97467.13;4933018;29;20336;-55
2023/12/08 09:28:34;;;;;;;506.25;250.68;;;;;;;0.81;100.00;97454.38;4932435;29;20539;-56
2023/12/08 09:31:00;;;;;;;373.95;229.90;;;;;;;0.69;100.00;97447.25;4932074;28;20047;-55
2023/12/08 09:33:26;;;;;;;411.30;242.15;;;;;;;0.80;100.00;97450.09;4930324;29;20023;-55
2023/12/08 09:35:51;;;;;;;350.70;227.63;;;;;;;0.96;100.00;97458.19;4931711;29;20043;-57
2023/12/08 09:38:17;;;;;;;404.40;238.00;;;;;;;0.92;100.00;97466.63;4933832;29;20146;-56
2023/12/08 09:40:44;;;;;;;590.05;283.08;;;;;;;1.01;100.00;97467.72;4930268;28;20042;-55
2023/12/08 09:43:37;;;;;;;356.20;234.95;;;;;;;0.98;100.00;97461.66;4933106;29;20047;-56
2023/12/08 09:46:04;;;;;;;382.90;238.95;;;;;;;1.07;100.00;97461.88;4929257;29;20046;-55
2023/12/08 09:48:32;;;;;;;341.08;224.90;;;;;;;1.22;100.00;97450.31;4931284;29;20456;-56
2023/12/08 09:51:00;;;;;;;385.63;225.48;;;;;;;1.37;100.00;97449.81;4914587;29;20050;-56
2023/12/08 09:53:26;;;;;;;335.65;231.02;;;;;;;1.29;100.00;97432.56;4932974;29;20628;-56
2023/12/08 09:55:53;;;;;;;399.05;234.90;;;;;;;1.38;100.00;97429.34;4928668;29;20494;-55
2023/12/08 09:58:20;;;;;;;361.67;232.77;;;;;;;1.73;100.00;97423.31;4931431;29;20034;-55
2023/12/08 10:00:48;;;;;;;658.42;454.50;;;;;;;1.56;100.00;97416.09;4929775;28;20039;-55
2023/12/08 10:03:14;;;;;;;411.58;243.73;;;;;;;0.86;100.00;97426.34;4932167;29;20256;-56
2023/12/08 10:05:40;;;;;;;504.60;250.82;;;;;;;0.88;100.00;97432.38;4930727;29;20035;-55
2023/12/08 10:08:08;;;;;;;476.00;288.67;;;;;;;0.92;100.00;97434.19;4931822;29;20019;-57
2023/12/08 10:10:34;;;;;;;446.73;246.63;;;;;;;0.92;100.00;97435.91;4931181;29;20059;-56
2023/12/08 10:13:00;;;;;;;450.05;296.10;;;;;;;0.97;100.00;97434.31;4930989;29;20071;-55
2023/12/08 10:15:25;;;;;;;370.05;241.07;;;;;;;0.92;100.00;97421.38;4929422;29;20111;-55
2023/12/08 10:17:51;;;;;;;454.67;290.27;;;;;;;0.76;100.00;97428.69;4930929;29;20028;-55
2023/12/08 10:20:19;;;;;;;385.85;244.50;;;;;;;0.88;100.00;97415.31;4929732;29;20024;-56
2023/12/08 10:22:46;;;;;;;551.75;258.45;;;;;;;1.12;100.00;97426.16;4929702;29;20492;-56
2023/12/08 10:25:16;;;;;;;376.17;251.48;;;;;;;1.14;100.00;97412.56;4931236;29;20023;-56
2023/12/08 10:27:45;;;;;;;687.17;437.15;;;;;;;1.00;100.00;97403.66;4930215;29;20135;-55
2023/12/08 10:30:11;;;;;;;404.48;245.80;;;;;;;0.97;100.00;97404.44;4930979;29;20567;-56
2023/12/08 10:32:37;;;;;;;425.23;249.07;;;;;;;1.82;100.00;97403.00;4930938;29;20031;-55
2023/12/08 10:35:03;;;;;;;399.52;243.20;;;;;;;2.25;100.00;97402.19;4929263;29;20023;-56
2023/12/08 10:37:29;;;;;;;387.23;237.00;;;;;;;2.12;100.00;97411.34;4931907;29;20376;-54
2023/12/08 10:39:54;;;;;;;480.83;284.15;;;;;;;2.20;100.00;97411.50;4930215;28;20045;-54
2023/12/08 10:42:20;;;;;;;399.58;233.65;;;;;;;2.49;100.00;97412.91;4936611;29;20044;-54
2023/12/08 10:44:47;;;;;;;533.25;243.27;;;;;;;2.29;100.00;97409.09;4932982;29;20046;-53
2023/12/08 10:47:12;;;;;;;384.75;238.80;;;;;;;2.28;100.00;97402.25;4935532;29;20081;-53
2023/12/08 10:49:38;;;;;;;491.38;245.93;;;;;;;2.10;100.00;97397.59;4931516;28;20238;-55